createdAt,value
2023-05-22T00:00:30.068Z,0.00
2023-05-22T00:01:30.051Z,0.00
2023-05-22T00:02:30.106Z,0.00
2023-05-22T00:03:30.132Z,0.00
2023-05-22T00:04:30.149Z,0.00
2023-05-22T00:05:30.007Z,0.00
2023-05-22T00:06:29.974Z,0.00
2023-05-22T00:07:29.991Z,0.00
2023-05-22T00:08:30.084Z,0.00
2023-05-22T00:09:29.941Z,0.00
2023-05-22T00:10:29.924Z,0.00
2023-05-22T00:11:29.908Z,0.00
2023-05-22T00:12:29.914Z,0.00
2023-05-22T00:13:29.887Z,0.00
2023-05-22T00:14:29.914Z,0.00
2023-05-22T00:15:29.866Z,0.00
2023-05-22T00:16:29.879Z,0.00
2023-05-22T00:17:29.919Z,0.00
2023-05-22T00:18:29.825Z,0.00
2023-05-22T00:19:29.898Z,0.00
2023-05-22T00:20:29.785Z,0.00
2023-05-22T00:21:29.803Z,0.00
2023-05-22T00:22:29.833Z,0.00
2023-05-22T00:23:29.748Z,0.00
2023-05-22T00:24:29.735Z,0.00
2023-05-22T00:25:29.728Z,0.00
2023-05-22T00:26:29.725Z,0.00
2023-05-22T00:27:29.702Z,0.00
2023-05-22T00:28:29.674Z,0.00
2023-05-22T00:29:29.669Z,0.00
2023-05-22T00:30:29.645Z,0.00
2023-05-22T00:31:29.666Z,0.00
2023-05-22T00:32:29.666Z,0.00
2023-05-22T00:33:29.632Z,0.00
2023-05-22T00:34:29.625Z,0.00
2023-05-22T00:35:29.624Z,0.00
2023-05-22T00:36:29.641Z,0.00
2023-05-22T00:37:29.577Z,0.00
2023-05-22T00:38:29.582Z,0.00
2023-05-22T00:39:29.566Z,0.00
2023-05-22T00:40:29.567Z,0.00
2023-05-22T00:41:29.509Z,0.00
2023-05-22T00:42:29.587Z,0.00
2023-05-22T00:43:29.491Z,0.00
2023-05-22T00:44:29.461Z,0.00
2023-05-22T00:45:29.481Z,0.00
2023-05-22T00:46:29.461Z,0.00
2023-05-22T00:47:29.451Z,0.00
2023-05-22T00:48:29.418Z,0.00
2023-05-22T00:49:29.426Z,0.00
2023-05-22T00:50:29.408Z,0.00
2023-05-22T00:51:29.369Z,0.00
2023-05-22T00:52:29.377Z,0.00
2023-05-22T00:53:29.352Z,0.00
2023-05-22T00:54:29.363Z,0.00
2023-05-22T00:55:29.323Z,0.00
2023-05-22T00:56:29.296Z,0.00
2023-05-22T00:57:29.328Z,0.00
2023-05-22T00:58:29.279Z,0.00
2023-05-22T00:59:29.269Z,0.00
2023-05-22T01:00:29.253Z,0.00
2023-05-22T01:01:29.296Z,0.00
2023-05-22T01:02:29.350Z,0.00
2023-05-22T01:03:29.299Z,0.00
2023-05-22T01:04:29.305Z,0.00
2023-05-22T01:05:30.058Z,0.00
2023-05-22T01:06:29.221Z,0.00
2023-05-22T01:07:29.152Z,0.00
2023-05-22T01:08:29.175Z,0.00
2023-05-22T01:09:29.128Z,0.00
2023-05-22T01:10:29.124Z,0.00
2023-05-22T01:11:29.122Z,0.00
2023-05-22T01:12:29.095Z,0.00
2023-05-22T01:13:29.096Z,0.00
2023-05-22T01:14:29.055Z,0.00
2023-05-22T01:15:29.037Z,0.00
2023-05-22T01:16:29.114Z,0.00
2023-05-22T01:17:29.091Z,0.00
2023-05-22T01:18:29.027Z,0.00
2023-05-22T01:19:29.078Z,0.00
2023-05-22T01:20:28.993Z,0.00
2023-05-22T01:21:28.963Z,0.00
2023-05-22T01:22:29.010Z,0.00
2023-05-22T01:23:28.925Z,0.00
2023-05-22T01:24:28.983Z,0.00
2023-05-22T01:25:28.917Z,0.00
2023-05-22T01:26:28.908Z,0.00
2023-05-22T01:27:28.980Z,0.00
2023-05-22T01:28:28.957Z,0.00
2023-05-22T01:29:28.857Z,0.00
2023-05-22T01:30:28.864Z,0.00
2023-05-22T01:31:28.986Z,0.00
2023-05-22T01:32:28.919Z,0.00
2023-05-22T01:33:28.905Z,0.00
2023-05-22T01:34:28.788Z,0.00
2023-05-22T01:35:28.792Z,0.00
2023-05-22T01:36:28.832Z,0.00
2023-05-22T01:37:28.753Z,0.00
2023-05-22T01:38:28.757Z,0.00
2023-05-22T01:39:28.724Z,0.00
2023-05-22T01:40:28.705Z,0.00
2023-05-22T01:41:28.724Z,0.00
2023-05-22T01:42:28.700Z,0.00
2023-05-22T01:43:28.681Z,0.00
2023-05-22T01:44:28.664Z,0.00
2023-05-22T01:45:28.718Z,0.00
2023-05-22T01:46:28.709Z,0.00
2023-05-22T01:47:28.666Z,0.00
2023-05-22T01:48:28.614Z,0.00
2023-05-22T01:49:28.591Z,0.00
2023-05-22T01:50:28.618Z,0.00
2023-05-22T01:51:28.563Z,0.00
2023-05-22T01:52:28.579Z,0.00
2023-05-22T01:53:28.550Z,0.00
2023-05-22T01:54:28.545Z,0.00
2023-05-22T01:55:28.545Z,0.00
2023-05-22T01:56:28.501Z,0.00
2023-05-22T01:57:28.483Z,0.00
2023-05-22T01:58:28.472Z,0.00
2023-05-22T01:59:28.490Z,0.00
2023-05-22T02:00:28.489Z,0.00
2023-05-22T02:01:28.457Z,0.00
2023-05-22T02:02:28.570Z,0.00
2023-05-22T02:03:28.580Z,0.00
2023-05-22T02:04:28.433Z,0.00
2023-05-22T02:05:28.517Z,0.00
2023-05-22T02:06:28.375Z,0.00
2023-05-22T02:07:28.354Z,0.00
2023-05-22T02:08:28.343Z,0.00
2023-05-22T02:09:28.361Z,0.00
2023-05-22T02:10:28.317Z,0.00
2023-05-22T02:11:28.293Z,0.00
2023-05-22T02:12:28.289Z,0.00
2023-05-22T02:13:28.323Z,0.00
2023-05-22T02:14:28.293Z,0.00
2023-05-22T02:15:28.282Z,0.00
2023-05-22T02:16:28.234Z,0.00
2023-05-22T02:17:28.272Z,0.00
2023-05-22T02:18:28.267Z,0.00
2023-05-22T02:19:28.234Z,0.00
2023-05-22T02:20:28.180Z,0.00
2023-05-22T02:21:28.232Z,0.00
2023-05-22T02:22:28.160Z,0.00
2023-05-22T02:23:28.178Z,0.00
2023-05-22T02:24:28.135Z,0.00
2023-05-22T02:25:28.120Z,0.00
2023-05-22T02:26:28.101Z,0.00
2023-05-22T02:27:28.111Z,0.00
2023-05-22T02:28:28.113Z,0.00
2023-05-22T02:29:28.055Z,0.00
2023-05-22T02:30:28.041Z,0.00
2023-05-22T02:31:28.089Z,0.00
2023-05-22T02:32:28.086Z,0.00
2023-05-22T02:33:28.012Z,0.00
2023-05-22T02:34:27.994Z,0.00
2023-05-22T02:35:27.971Z,0.00
2023-05-22T02:36:27.975Z,0.00
2023-05-22T02:37:27.986Z,0.00
2023-05-22T02:38:27.942Z,0.00
2023-05-22T02:39:27.925Z,0.00
2023-05-22T02:40:27.913Z,0.00
2023-05-22T02:41:27.941Z,0.00
2023-05-22T02:42:27.923Z,0.00
2023-05-22T02:43:27.880Z,0.00
2023-05-22T02:44:27.886Z,0.00
2023-05-22T02:45:27.795Z,1.00
2023-05-22T02:46:27.918Z,0.00
2023-05-22T02:47:27.838Z,0.00
2023-05-22T02:48:27.800Z,0.00
2023-05-22T02:49:27.744Z,1.00
2023-05-22T02:50:27.721Z,1.00
2023-05-22T02:51:27.755Z,1.00
2023-05-22T02:52:27.705Z,1.00
2023-05-22T02:53:27.699Z,2.00
2023-05-22T02:54:27.749Z,0.00
2023-05-22T02:55:27.689Z,2.00
2023-05-22T02:56:27.678Z,2.00
2023-05-22T02:57:27.645Z,1.00
2023-05-22T02:58:27.771Z,1.00
2023-05-22T02:59:27.601Z,2.00
2023-05-22T03:00:27.597Z,1.00
2023-05-22T03:01:27.710Z,1.00
2023-05-22T03:02:27.635Z,5.00
2023-05-22T03:03:27.661Z,4.00
2023-05-22T03:04:27.543Z,4.00
2023-05-22T03:05:27.522Z,2.00
2023-05-22T03:06:27.542Z,4.00
2023-05-22T03:07:27.500Z,5.00
2023-05-22T03:08:27.494Z,7.00
2023-05-22T03:09:27.505Z,5.00
2023-05-22T03:10:27.496Z,10.00
2023-05-22T03:11:27.449Z,11.00
2023-05-22T03:12:27.431Z,16.00
2023-05-22T03:13:27.435Z,12.00
2023-05-22T03:14:27.427Z,11.00
2023-05-22T03:15:27.390Z,15.00
2023-05-22T03:16:27.399Z,22.00
2023-05-22T03:17:27.406Z,19.00
2023-05-22T03:18:27.837Z,21.00
2023-05-22T03:19:27.459Z,21.00
2023-05-22T03:20:27.383Z,24.00
2023-05-22T03:21:27.319Z,28.00
2023-05-22T03:22:27.299Z,27.00
2023-05-22T03:23:27.341Z,28.00
2023-05-22T03:24:27.271Z,33.00
2023-05-22T03:25:27.286Z,29.00
2023-05-22T03:26:27.253Z,32.00
2023-05-22T03:27:27.230Z,38.00
2023-05-22T03:28:27.234Z,44.00
2023-05-22T03:29:27.230Z,44.00
2023-05-22T03:30:27.276Z,46.00
2023-05-22T03:31:27.240Z,49.00
2023-05-22T03:32:27.403Z,49.00
2023-05-22T03:33:27.263Z,52.00
2023-05-22T03:34:27.283Z,58.00
2023-05-22T03:35:27.126Z,60.00
2023-05-22T03:36:27.130Z,67.00
2023-05-22T03:37:27.142Z,69.00
2023-05-22T03:38:27.081Z,69.00
2023-05-22T03:39:27.103Z,75.00
2023-05-22T03:40:27.087Z,77.00
2023-05-22T03:41:27.043Z,81.00
2023-05-22T03:42:27.064Z,81.00
2023-05-22T03:43:27.058Z,86.00
2023-05-22T03:44:27.128Z,90.00
2023-05-22T03:45:26.995Z,95.00
2023-05-22T03:46:27.094Z,95.00
2023-05-22T03:47:27.052Z,100.00
2023-05-22T03:48:26.951Z,96.00
2023-05-22T03:49:26.944Z,106.00
2023-05-22T03:50:26.932Z,110.00
2023-05-22T03:51:26.909Z,111.00
2023-05-22T03:52:26.936Z,117.00
2023-05-22T03:53:26.912Z,124.00
2023-05-22T03:54:26.904Z,131.00
2023-05-22T03:55:26.864Z,136.00
2023-05-22T03:56:26.893Z,148.00
2023-05-22T03:57:26.879Z,155.00
2023-05-22T03:58:26.824Z,159.00
2023-05-22T03:59:26.811Z,176.00
2023-05-22T04:00:36.000Z,186.00
2023-05-22T04:01:27.835Z,193.00
2023-05-22T04:02:26.835Z,203.00
2023-05-22T04:03:26.915Z,211.00
2023-05-22T04:04:26.737Z,221.00
2023-05-22T04:05:26.822Z,235.00
2023-05-22T04:06:26.742Z,241.00
2023-05-22T04:07:26.702Z,248.00
2023-05-22T04:08:26.700Z,253.00
2023-05-22T04:09:26.674Z,267.00
2023-05-22T04:10:26.704Z,276.00
2023-05-22T04:11:26.678Z,284.00
2023-05-22T04:12:26.644Z,293.00
2023-05-22T04:13:26.664Z,291.00
2023-05-22T04:14:26.643Z,297.00
2023-05-22T04:15:26.618Z,311.00
2023-05-22T04:16:26.682Z,320.00
2023-05-22T04:17:26.621Z,323.00
2023-05-22T04:18:26.558Z,331.00
2023-05-22T04:19:26.655Z,341.00
2023-05-22T04:20:26.584Z,351.00
2023-05-22T04:21:26.559Z,358.00
2023-05-22T04:22:26.506Z,368.00
2023-05-22T04:23:26.637Z,379.00
2023-05-22T04:24:26.599Z,392.00
2023-05-22T04:25:26.494Z,405.00
2023-05-22T04:26:26.470Z,408.00
2023-05-22T04:27:26.442Z,417.00
2023-05-22T04:28:26.426Z,429.00
2023-05-22T04:29:26.444Z,440.00
2023-05-22T04:30:26.411Z,454.00
2023-05-22T04:31:26.556Z,471.00
2023-05-22T04:32:26.426Z,489.00
2023-05-22T04:33:26.395Z,502.00
2023-05-22T04:34:26.388Z,516.00
2023-05-22T04:35:26.346Z,531.00
2023-05-22T04:36:26.428Z,547.00
2023-05-22T04:37:26.395Z,560.00
2023-05-22T04:38:26.428Z,570.00
2023-05-22T04:39:26.485Z,577.00
2023-05-22T04:40:26.325Z,595.00
2023-05-22T04:41:26.269Z,615.00
2023-05-22T04:42:26.329Z,623.00
2023-05-22T04:43:26.300Z,635.00
2023-05-22T04:44:26.218Z,641.00
2023-05-22T04:45:26.276Z,654.00
2023-05-22T04:46:26.272Z,661.00
2023-05-22T04:47:26.233Z,673.00
2023-05-22T04:48:26.211Z,687.00
2023-05-22T04:49:26.197Z,701.00
2023-05-22T04:50:26.183Z,710.00
2023-05-22T04:51:26.207Z,728.00
2023-05-22T04:52:26.191Z,743.00
2023-05-22T04:53:26.145Z,750.00
2023-05-22T04:54:26.086Z,770.00
2023-05-22T04:55:26.089Z,794.00
2023-05-22T04:56:35.431Z,811.00
2023-05-22T04:57:27.090Z,831.00
2023-05-22T04:58:26.026Z,849.00
2023-05-22T04:59:26.015Z,861.00
2023-05-22T05:00:26.005Z,879.00
2023-05-22T05:01:26.034Z,892.00
2023-05-22T05:02:26.161Z,905.00
2023-05-22T05:03:26.015Z,915.00
2023-05-22T05:04:25.945Z,929.00
2023-05-22T05:05:25.937Z,941.00
2023-05-22T05:06:25.973Z,952.00
2023-05-22T05:07:25.933Z,972.00
2023-05-22T05:08:25.897Z,979.00
2023-05-22T05:09:25.887Z,984.00
2023-05-22T05:10:25.864Z,999.00
2023-05-22T05:11:25.916Z,1012.00
2023-05-22T05:12:25.883Z,1018.00
2023-05-22T05:13:25.864Z,1030.00
2023-05-22T05:14:25.822Z,1033.00
2023-05-22T05:15:25.853Z,1054.00
2023-05-22T05:16:25.885Z,1055.00
2023-05-22T05:17:25.838Z,1058.00
2023-05-22T05:18:25.764Z,1068.00
2023-05-22T05:19:25.792Z,1077.00
2023-05-22T05:20:25.782Z,1090.00
2023-05-22T05:21:25.750Z,1106.00
2023-05-22T05:22:25.700Z,1111.00
2023-05-22T05:23:25.707Z,1130.00
2023-05-22T05:24:25.669Z,1152.00
2023-05-22T05:25:25.688Z,1181.00
2023-05-22T05:26:25.670Z,1186.00
2023-05-22T05:27:25.644Z,1197.00
2023-05-22T05:28:25.621Z,1238.00
2023-05-22T05:29:25.615Z,1306.00
2023-05-22T05:30:25.623Z,1297.00
2023-05-22T05:31:25.610Z,1347.00
2023-05-22T05:32:25.666Z,1363.00
2023-05-22T05:33:25.562Z,1356.00
2023-05-22T05:34:25.591Z,1365.00
2023-05-22T05:35:25.570Z,1355.00
2023-05-22T05:36:25.519Z,1434.00
2023-05-22T05:37:25.502Z,1443.00
2023-05-22T05:38:25.491Z,1432.00
2023-05-22T05:39:25.512Z,1431.00
2023-05-22T05:40:25.473Z,1415.00
2023-05-22T05:41:25.453Z,1421.00
2023-05-22T05:42:25.442Z,1420.00
2023-05-22T05:43:25.457Z,1424.00
2023-05-22T05:44:25.441Z,1436.00
2023-05-22T05:45:25.415Z,1450.00
2023-05-22T05:46:25.452Z,1474.00
2023-05-22T05:47:25.401Z,1491.00
2023-05-22T05:48:25.400Z,1493.00
2023-05-22T05:49:25.375Z,1502.00
2023-05-22T05:50:25.326Z,1530.00
2023-05-22T05:51:25.321Z,1551.00
2023-05-22T05:52:25.312Z,1578.00
2023-05-22T05:53:25.320Z,1595.00
2023-05-22T05:54:25.278Z,1601.00
2023-05-22T05:55:25.267Z,1641.00
2023-05-22T05:56:25.253Z,1650.00
2023-05-22T05:57:25.237Z,1645.00
2023-05-22T05:58:25.252Z,1682.00
2023-05-22T05:59:25.218Z,1702.00
2023-05-22T06:00:25.973Z,1677.00
2023-05-22T06:01:25.219Z,1745.00
2023-05-22T06:02:25.250Z,1686.00
2023-05-22T06:03:25.336Z,1700.00
2023-05-22T06:04:25.146Z,1687.00
2023-05-22T06:05:25.160Z,1690.00
2023-05-22T06:06:25.116Z,1744.00
2023-05-22T06:07:25.135Z,1783.00
2023-05-22T06:08:25.095Z,1756.00
2023-05-22T06:09:25.100Z,1801.00
2023-05-22T06:10:25.079Z,1773.00
2023-05-22T06:11:25.084Z,1756.00
2023-05-22T06:12:25.057Z,1760.00
2023-05-22T06:13:25.033Z,1713.00
2023-05-22T06:14:25.124Z,1729.00
2023-05-22T06:15:25.000Z,1771.00
2023-05-22T06:16:25.035Z,1770.00
2023-05-22T06:17:25.019Z,1806.00
2023-05-22T06:18:24.963Z,1775.00
2023-05-22T06:19:25.039Z,1815.00
2023-05-22T06:20:24.934Z,1801.00
2023-05-22T06:21:24.951Z,1820.00
2023-05-22T06:22:24.922Z,1953.00
2023-05-22T06:23:24.899Z,1914.00
2023-05-22T06:24:24.878Z,1918.00
2023-05-22T06:25:24.879Z,1942.00
2023-05-22T06:26:24.887Z,1980.00
2023-05-22T06:27:24.839Z,2021.00
2023-05-22T06:28:24.828Z,2069.00
2023-05-22T06:29:24.828Z,2076.00
2023-05-22T06:30:38.900Z,2179.00
2023-05-22T06:31:25.845Z,2053.00
2023-05-22T06:32:24.851Z,2055.00
2023-05-22T06:33:24.855Z,2143.00
2023-05-22T06:34:24.821Z,2272.00
2023-05-22T06:35:24.770Z,2312.00
2023-05-22T06:36:24.750Z,2339.00
2023-05-22T06:37:24.718Z,2118.00
2023-05-22T06:38:24.703Z,2287.00
2023-05-22T06:39:24.692Z,2355.00
2023-05-22T06:40:24.717Z,2339.00
2023-05-22T06:41:24.678Z,2226.00
2023-05-22T06:42:24.644Z,2395.00
2023-05-22T06:43:24.683Z,2308.00
2023-05-22T06:44:24.693Z,2781.00
2023-05-22T06:45:24.668Z,2760.00
2023-05-22T06:46:26.171Z,1762.00
2023-05-22T06:47:24.633Z,2363.00
2023-05-22T06:48:24.613Z,2447.00
2023-05-22T06:49:24.613Z,2472.00
2023-05-22T06:50:24.560Z,2550.00
2023-05-22T06:51:24.590Z,2250.00
2023-05-22T06:52:24.509Z,2259.00
2023-05-22T06:53:24.519Z,2089.00
2023-05-22T06:54:24.539Z,2151.00
2023-05-22T06:55:24.488Z,2189.00
2023-05-22T06:56:24.468Z,1899.00
2023-05-22T06:57:24.465Z,1768.00
2023-05-22T06:58:24.461Z,1858.00
2023-05-22T06:59:25.243Z,2131.00
2023-05-22T07:00:24.499Z,2617.00
2023-05-22T07:01:24.442Z,2098.00
2023-05-22T07:02:24.512Z,2165.00
2023-05-22T07:03:24.400Z,2066.00
2023-05-22T07:04:24.395Z,2038.00
2023-05-22T07:05:24.370Z,2041.00
2023-05-22T07:06:24.325Z,1983.00
2023-05-22T07:07:24.323Z,1961.00
2023-05-22T07:08:24.326Z,1939.00
2023-05-22T07:09:24.317Z,1919.00
2023-05-22T07:10:24.282Z,1908.00
2023-05-22T07:11:24.268Z,1903.00
2023-05-22T07:12:24.273Z,1877.00
2023-05-22T07:13:24.273Z,1834.00
2023-05-22T07:14:24.234Z,1781.00
2023-05-22T07:15:24.225Z,1666.00
2023-05-22T07:16:24.252Z,2058.00
2023-05-22T07:17:24.366Z,2240.00
2023-05-22T07:18:24.177Z,2155.00
2023-05-22T07:19:24.215Z,2159.00
2023-05-22T07:20:24.162Z,2166.00
2023-05-22T07:21:24.140Z,2055.00
2023-05-22T07:22:24.155Z,2024.00
2023-05-22T07:23:26.095Z,2009.00
2023-05-22T07:24:24.096Z,2064.00
2023-05-22T07:25:24.087Z,2005.00
2023-05-22T07:26:24.095Z,2002.00
2023-05-22T07:27:24.115Z,2004.00
2023-05-22T07:28:24.047Z,1996.00
2023-05-22T07:29:24.026Z,1985.00
2023-05-22T07:30:24.008Z,1956.00
2023-05-22T07:31:24.108Z,1943.00
2023-05-22T07:32:24.077Z,1893.00
2023-05-22T07:33:23.969Z,1961.00
2023-05-22T07:34:23.957Z,1988.00
2023-05-22T07:35:23.957Z,1958.00
2023-05-22T07:36:23.961Z,1912.00
2023-05-22T07:37:23.940Z,1872.00
2023-05-22T07:38:23.917Z,1872.00
2023-05-22T07:39:23.902Z,1865.00
2023-05-22T07:40:24.499Z,1826.00
2023-05-22T07:41:23.888Z,1792.00
2023-05-22T07:42:23.836Z,1641.00
2023-05-22T07:43:23.829Z,1545.00
2023-05-22T07:44:23.820Z,1596.00
2023-05-22T07:45:23.838Z,1663.00
2023-05-22T07:46:23.841Z,1678.00
2023-05-22T07:47:23.821Z,1802.00
2023-05-22T07:48:23.792Z,1400.00
2023-05-22T07:49:23.798Z,1950.00
2023-05-22T07:50:23.777Z,2018.00
2023-05-22T07:51:23.729Z,2287.00
2023-05-22T07:52:23.731Z,1806.00
2023-05-22T07:53:23.708Z,2271.00
2023-05-22T07:54:23.715Z,2205.00
2023-05-22T07:55:23.694Z,1871.00
2023-05-22T07:56:23.743Z,1699.00
2023-05-22T07:57:23.653Z,1684.00
2023-05-22T07:58:23.642Z,1716.00
2023-05-22T07:59:23.664Z,1744.00
2023-05-22T08:00:23.597Z,1936.00
2023-05-22T08:01:23.608Z,1908.00
2023-05-22T08:02:23.681Z,2156.00
2023-05-22T08:03:24.402Z,1964.00
2023-05-22T08:04:23.613Z,2128.00
2023-05-22T08:05:23.594Z,2286.00
2023-05-22T08:06:24.332Z,2249.00
2023-05-22T08:07:23.551Z,1699.00
2023-05-22T08:08:23.531Z,2540.00
2023-05-22T08:09:23.523Z,2773.00
2023-05-22T08:10:23.470Z,2463.00
2023-05-22T08:11:23.459Z,2260.00
2023-05-22T08:12:24.233Z,2315.00
2023-05-22T08:13:23.461Z,2119.00
2023-05-22T08:14:23.409Z,1716.00
2023-05-22T08:15:23.409Z,2121.00
2023-05-22T08:16:23.442Z,2065.00
2023-05-22T08:17:23.428Z,1920.00
2023-05-22T08:18:23.404Z,2275.00
2023-05-22T08:19:23.430Z,2125.00
2023-05-22T08:20:23.374Z,2069.00
2023-05-22T08:21:23.339Z,2045.00
2023-05-22T08:22:23.343Z,1933.00
2023-05-22T08:23:23.345Z,1890.00
2023-05-22T08:24:23.286Z,1882.00
2023-05-22T08:25:23.284Z,1766.00
2023-05-22T08:26:23.257Z,1651.00
2023-05-22T08:27:23.271Z,1461.00
2023-05-22T08:28:23.261Z,1634.00
2023-05-22T08:29:23.247Z,1821.00
2023-05-22T08:30:23.222Z,1944.00
2023-05-22T08:31:23.262Z,1528.00
2023-05-22T08:32:23.252Z,1324.00
2023-05-22T08:33:23.178Z,1449.00
2023-05-22T08:34:23.152Z,1532.00
2023-05-22T08:35:23.144Z,1743.00
2023-05-22T08:36:23.162Z,1845.00
2023-05-22T08:37:23.144Z,1754.00
2023-05-22T08:38:23.105Z,1776.00
2023-05-22T08:39:23.103Z,1794.00
2023-05-22T08:40:23.084Z,1843.00
2023-05-22T08:41:23.135Z,2166.00
2023-05-22T08:42:23.043Z,3489.00
2023-05-22T08:43:23.035Z,1420.00
2023-05-22T08:44:23.020Z,1981.00
2023-05-22T08:45:23.122Z,1464.00
2023-05-22T08:46:23.060Z,2029.00
2023-05-22T08:47:22.991Z,1749.00
2023-05-22T08:48:22.976Z,1954.00
2023-05-22T08:49:23.953Z,1346.00
2023-05-22T08:50:22.984Z,1425.00
2023-05-22T08:51:22.946Z,1559.00
2023-05-22T08:52:22.907Z,1519.00
2023-05-22T08:53:22.894Z,1560.00
2023-05-22T08:54:22.893Z,1596.00
2023-05-22T08:55:22.925Z,2195.00
2023-05-22T08:56:22.861Z,1557.00
2023-05-22T08:57:22.838Z,1747.00
2023-05-22T08:58:22.855Z,1797.00
2023-05-22T08:59:22.868Z,1884.00
2023-05-22T09:00:22.847Z,1971.00
2023-05-22T09:01:22.795Z,2026.00
2023-05-22T09:02:22.828Z,2059.00
2023-05-22T09:03:22.823Z,2030.00
2023-05-22T09:04:22.796Z,2158.00
2023-05-22T09:05:22.734Z,1924.00
2023-05-22T09:06:22.729Z,1982.00
2023-05-22T09:07:22.712Z,2034.00
2023-05-22T09:08:22.766Z,2088.00
2023-05-22T09:09:22.709Z,2070.00
2023-05-22T09:10:22.707Z,2049.00
2023-05-22T09:11:22.665Z,2060.00
2023-05-22T09:12:22.667Z,2337.00
2023-05-22T09:13:22.664Z,3137.00
2023-05-22T09:14:22.657Z,1786.00
2023-05-22T09:15:22.626Z,2093.00
2023-05-22T09:16:22.644Z,1748.00
2023-05-22T09:17:22.724Z,1449.00
2023-05-22T09:18:22.612Z,2173.00
2023-05-22T09:19:22.611Z,1410.00
2023-05-22T09:20:22.623Z,1507.00
2023-05-22T09:22:24.475Z,1787.00
2023-05-22T09:23:22.529Z,1897.00
2023-05-22T09:24:22.492Z,2080.00
2023-05-22T09:25:22.478Z,2275.00
2023-05-22T09:26:22.485Z,2368.00
2023-05-22T09:27:22.471Z,2395.00
2023-05-22T09:28:22.493Z,2413.00
2023-05-22T09:29:22.449Z,2368.00
2023-05-22T09:30:22.437Z,2335.00
2023-05-22T09:31:22.431Z,2358.00
2023-05-22T09:32:22.445Z,2390.00
2023-05-22T09:33:22.404Z,2386.00
2023-05-22T09:34:22.360Z,2417.00
2023-05-22T09:35:22.364Z,2494.00
2023-05-22T09:36:22.332Z,2529.00
2023-05-22T09:37:22.356Z,2506.00
2023-05-22T09:38:22.343Z,2442.00
2023-05-22T09:39:22.298Z,2391.00
2023-05-22T09:40:22.386Z,2333.00
2023-05-22T09:41:22.310Z,2244.00
2023-05-22T09:42:22.264Z,2198.00
2023-05-22T09:43:22.246Z,2193.00
2023-05-22T09:44:22.266Z,2228.00
2023-05-22T09:45:22.252Z,2349.00
2023-05-22T09:46:22.377Z,2347.00
2023-05-22T09:47:22.265Z,2290.00
2023-05-22T09:48:22.190Z,2207.00
2023-05-22T09:49:22.168Z,2956.00
2023-05-22T09:50:22.180Z,2100.00
2023-05-22T09:51:22.164Z,1841.00
2023-05-22T09:52:22.139Z,2357.00
2023-05-22T09:53:22.118Z,2377.00
2023-05-22T09:54:22.102Z,2135.00
2023-05-22T09:55:22.118Z,2052.00
2023-05-22T09:56:34.777Z,1948.00
2023-05-22T09:57:23.063Z,1731.00
2023-05-22T09:58:22.050Z,1654.00
2023-05-22T09:59:22.076Z,1625.00
2023-05-22T10:00:22.066Z,1539.00
2023-05-22T10:01:22.057Z,1411.00
2023-05-22T10:02:22.029Z,1193.00
2023-05-22T10:03:21.997Z,1412.00
2023-05-22T10:04:22.131Z,1300.00
2023-05-22T10:05:22.256Z,1411.00
2023-05-22T10:06:21.964Z,1495.00
2023-05-22T10:07:21.958Z,1692.00
2023-05-22T10:08:22.034Z,1981.00
2023-05-22T10:09:21.957Z,1638.00
2023-05-22T10:10:22.001Z,1284.00
2023-05-22T10:11:21.882Z,1415.00
2023-05-22T10:12:21.889Z,1701.00
2023-05-22T10:13:21.860Z,1882.00
2023-05-22T10:14:21.876Z,1893.00
2023-05-22T10:15:21.839Z,1997.00
2023-05-22T10:16:21.848Z,2168.00
2023-05-22T10:17:21.831Z,2230.00
2023-05-22T10:18:21.819Z,2305.00
2023-05-22T10:19:21.847Z,2334.00
2023-05-22T10:20:21.797Z,2336.00
2023-05-22T10:21:21.761Z,2326.00
2023-05-22T10:22:21.751Z,2277.00
2023-05-22T10:23:21.769Z,2300.00
2023-05-22T10:24:21.769Z,2365.00
2023-05-22T10:25:22.523Z,2392.00
2023-05-22T10:26:21.708Z,2398.00
2023-05-22T10:27:21.698Z,2410.00
2023-05-22T10:28:21.702Z,2419.00
2023-05-22T10:29:21.662Z,2412.00
2023-05-22T10:30:21.770Z,2402.00
2023-05-22T10:31:21.644Z,2378.00
2023-05-22T10:32:21.692Z,2315.00
2023-05-22T10:33:21.729Z,2238.00
2023-05-22T10:34:21.601Z,2269.00
2023-05-22T10:35:21.575Z,2296.00
2023-05-22T10:36:21.580Z,2179.00
2023-05-22T10:37:21.597Z,2110.00
2023-05-22T10:38:21.560Z,2083.00
2023-05-22T10:39:21.526Z,2050.00
2023-05-22T10:40:21.646Z,2020.00
2023-05-22T10:41:21.504Z,2010.00
2023-05-22T10:42:21.525Z,3027.00
2023-05-22T10:43:21.476Z,2460.00
2023-05-22T10:44:21.464Z,2207.00
2023-05-22T10:45:21.448Z,1817.00
2023-05-22T10:46:21.491Z,2000.00
2023-05-22T10:47:21.519Z,2043.00
2023-05-22T10:48:21.437Z,1998.00
2023-05-22T10:49:21.402Z,2029.00
2023-05-22T10:50:21.397Z,1952.00
2023-05-22T10:51:22.237Z,1867.00
2023-05-22T10:52:22.166Z,1855.00
2023-05-22T10:53:21.348Z,1835.00
2023-05-22T10:54:21.341Z,1807.00
2023-05-22T10:55:21.323Z,1802.00
2023-05-22T10:56:24.459Z,1787.00
2023-05-22T10:57:21.300Z,1784.00
2023-05-22T10:58:21.303Z,1777.00
2023-05-22T10:59:21.279Z,1742.00
2023-05-22T11:00:21.338Z,1715.00
2023-05-22T11:01:21.369Z,1742.00
2023-05-22T11:02:22.461Z,1723.00
2023-05-22T11:03:21.290Z,1673.00
2023-05-22T11:04:21.236Z,1588.00
2023-05-22T11:05:21.223Z,1557.00
2023-05-22T11:06:21.204Z,1445.00
2023-05-22T11:07:21.165Z,1451.00
2023-05-22T11:08:21.164Z,1546.00
2023-05-22T11:09:21.194Z,1885.00
2023-05-22T11:10:21.170Z,1792.00
2023-05-22T11:11:21.143Z,2644.00
2023-05-22T11:12:21.126Z,1802.00
2023-05-22T11:13:21.104Z,1873.00
2023-05-22T11:14:21.120Z,1793.00
2023-05-22T11:15:21.084Z,1695.00
2023-05-22T11:16:21.062Z,1631.00
2023-05-22T11:17:21.034Z,1556.00
2023-05-22T11:18:21.070Z,1502.00
2023-05-22T11:19:23.796Z,1603.00
2023-05-22T11:20:21.089Z,1638.00
2023-05-22T11:21:20.993Z,1901.00
2023-05-22T11:22:20.983Z,1697.00
2023-05-22T11:23:20.963Z,2519.00
2023-05-22T11:24:21.931Z,1633.00
2023-05-22T11:25:20.938Z,1744.00
2023-05-22T11:26:20.958Z,1923.00
2023-05-22T11:27:20.912Z,2113.00
2023-05-22T11:28:20.944Z,2027.00
2023-05-22T11:29:20.916Z,1655.00
2023-05-22T11:30:20.891Z,1823.00
2023-05-22T11:31:20.900Z,1946.00
2023-05-22T11:32:20.858Z,2017.00
2023-05-22T11:33:20.916Z,2055.00
2023-05-22T11:34:20.866Z,2131.00
2023-05-22T11:35:20.802Z,2235.00
2023-05-22T11:36:20.808Z,2297.00
2023-05-22T11:37:20.794Z,2326.00
2023-05-22T11:38:20.805Z,2337.00
2023-05-22T11:39:20.768Z,2360.00
2023-05-22T11:40:20.759Z,2365.00
2023-05-22T11:41:20.740Z,2322.00
2023-05-22T11:42:20.761Z,2234.00
2023-05-22T11:43:20.722Z,2096.00
2023-05-22T11:44:20.697Z,2023.00
2023-05-22T11:45:20.674Z,2655.00
2023-05-22T11:46:20.725Z,1711.00
2023-05-22T11:47:20.688Z,1953.00
2023-05-22T11:48:20.661Z,2127.00
2023-05-22T11:49:20.647Z,2185.00
2023-05-22T11:50:33.433Z,2126.00
2023-05-22T11:51:21.625Z,2041.00
2023-05-22T11:52:20.629Z,2009.00
2023-05-22T11:53:20.592Z,2134.00
2023-05-22T11:54:20.568Z,2248.00
2023-05-22T11:55:20.561Z,2240.00
2023-05-22T11:56:20.570Z,2235.00
2023-05-22T11:57:20.558Z,2212.00
2023-05-22T11:58:20.542Z,2211.00
2023-05-22T11:59:20.492Z,2182.00
2023-05-22T12:00:20.510Z,2153.00
2023-05-22T12:01:20.517Z,2143.00
2023-05-22T12:02:20.482Z,2172.00
2023-05-22T12:03:20.539Z,2181.00
2023-05-22T12:04:20.526Z,2182.00
2023-05-22T12:05:20.431Z,2177.00
2023-05-22T12:06:20.486Z,2175.00
2023-05-22T12:07:20.383Z,2174.00
2023-05-22T12:08:20.399Z,2175.00
2023-05-22T12:09:20.380Z,2174.00
2023-05-22T12:10:20.393Z,2167.00
2023-05-22T12:11:20.375Z,2164.00
2023-05-22T12:12:22.361Z,2161.00
2023-05-22T12:13:20.317Z,2156.00
2023-05-22T12:14:20.316Z,2146.00
2023-05-22T12:15:20.344Z,2141.00
2023-05-22T12:16:20.310Z,2144.00
2023-05-22T12:17:20.260Z,2142.00
2023-05-22T12:18:20.258Z,2137.00
2023-05-22T12:19:20.289Z,2129.00
2023-05-22T12:20:20.266Z,2125.00
2023-05-22T12:21:20.233Z,2122.00
2023-05-22T12:22:22.491Z,2113.00
2023-05-22T12:23:20.195Z,2104.00
2023-05-22T12:24:20.210Z,2095.00
2023-05-22T12:25:20.376Z,2091.00
2023-05-22T12:26:20.154Z,2095.00
2023-05-22T12:27:20.148Z,2104.00
2023-05-22T12:28:20.128Z,2108.00